This is the latest recevied weather packets stored in our database for station/object KB4KY. If no packets are shown the sender has not sent any weather packets the latest 1 day(s).
| Time | Temp. | Humidity | Pressure | Rain* | Wind** | Luminosity | Snow |
|---|---|---|---|---|---|---|---|
| 1778027873 | 17.22° C | 88% | 1005.6 hPa | 0.25 mm | 0 m/s | - | - |
| 1778027580 | 17.22° C | 87% | 1005.7 hPa | 0 mm | 0 m/s | - | - |
| 1778027270 | 17.78° C | 87% | 1005.8 hPa | 0.76 mm | 0 m/s | - | - |
| 1778026972 | 17.78° C | 87% | 1005.5 hPa | 0.76 mm | 0 m/s | - | - |
| 1778026670 | 17.78° C | 87% | 1005.5 hPa | 0.76 mm | 0 m/s | - | - |
| 1778026373 | 17.78° C | 84% | 1005.5 hPa | 0.76 mm | 0 m/s | - | - |
| 1778026069 | 17.78° C | 83% | 1005.6 hPa | 0.76 mm | 0 m/s | - | - |
| 1778025771 | 17.78° C | 83% | 1005.7 hPa | 0.76 mm | 0 m/s | - | - |
| 1778025468 | 17.78° C | 81% | 1005.6 hPa | 0.76 mm | 0 m/s | - | - |
| 1778025169 | 18.33° C | 82% | 1005.7 hPa | 0.76 mm | 0 m/s | - | - |
| 1778024268 | 19.44° C | 76% | 1005.9 hPa | 0.76 mm | 0 m/s | - | - |
| 1778023668 | 20.56° C | 65% | 1006 hPa | 0 mm | 0 m/s | - | - |
| 1778023109 | 21.11° C | 63% | 1005.7 hPa | 0 mm | 0 m/s | - | - |
| 1778023066 | 21.11° C | 63% | 1005.7 hPa | 0 mm | 0 m/s | - | - |
| 1778022766 | 21.11° C | 63% | 1005.7 hPa | 0 mm | 0 m/s | - | - |
| 1778022465 | 21.11° C | 63% | 1006 hPa | 0 mm | 0 m/s | - | - |
| 1778022175 | 21.11° C | 63% | 1006.1 hPa | 0 mm | 0 m/s | - | - |
| 1778021866 | 21.11° C | 61% | 1005.9 hPa | 0 mm | 0 m/s | - | - |
| 1778021567 | 21.11° C | 59% | 1005.8 hPa | 0 mm | 0.45 m/s, 209° | - | - |
| 1778021265 | 21.67° C | 61% | 1006.2 hPa | 0 mm | 0.89 m/s, 233° | - | - |
| 1778021139 | 21.67° C | 56% | 1006 hPa | 0 mm | 1.79 m/s, 209° | - | - |
| 1778020964 | 21.67° C | 59% | 1006.1 hPa | 0 mm | 0 m/s | - | - |
| 1778020672 | 21.67° C | 58% | 1006.1 hPa | 0 mm | 0.89 m/s, 241° | - | - |
| 1778020363 | 21.67° C | 56% | 1006.1 hPa | 0 mm | 0.45 m/s, 212° | - | - |
| 1778020069 | 21.67° C | 55% | 1006 hPa | 0 mm | 0.45 m/s, 255° | - | - |
* Rain latest hour (hover to see other rain measurements)
** Current wind speed in m/s (hover to see current wind gust speed)